ENHD/HAU METAR and TAF weather

Enter ICAO airport designator
Station Type Date Time Source
ENHD METAR 2019/04/25 21:50 UTC NOAA

ENHD 252150Z AUTO 11006KT 9999 NCD 10/08 Q1011


Station Type Date Time Source
ENHD Decoded METAR 2019/04/25 21:50 UTC NOAA

Haugesund / Karmoy, Norway (ENHD) 59-21N 005-13E 24M
Apr 25, 2019 - 05:50 PM EDT / 2019.04.25 2150 UTC
Wind: from the ESE (110 degrees) at 7 MPH (6 KT):0
Visibility: greater than 7 mile(s):0
Temperature: 50 F (10 C)
Dew Point: 46 F (8 C)
Relative Humidity: 87%
Pressure (altimeter): 29.85 in. Hg (1011 hPa)
ob: ENHD 252150Z AUTO 11006KT 9999 NCD 10/08 Q1011
cycle: 22

Station Type Date Time Source
ENHD TAF UTC NOAA

Error!

Example: see airport list